Impacts TAF Board
For situational awareness. Not to be used for flight planning purposes.
IDs:

KATL - Atlanta/Hartsfield-J, GA, US

Issued at 2152 UTC 18 Nov 2018
Updated at 2312 UTC 18 Nov 2018
Potential Impact None Slight Moderate High
Time<<19/12Z 19/13Z 19/14Z 19/15Z 19/16Z 19/17Z 19/18Z 19/19Z 19/20Z 19/21Z 19/22Z 19/23Z 20/00Z>>
Type PRVL PRVL PRVL PRVL PRVL PRVL PRVL PRVL PRVL PRVL PRVL PRVL
VIS 6 >6 >6 >6 >6 >6 >6 >6 >6 >6 >6 >6
CIG -- -- -- -- -- -- -- -- -- 250 250 250
Cover SCT SCT SCT SCT SCT SCT SCT SCT SCT BKN BKN BKN
FltCat VFR VFR VFR VFR VFR VFR VFR VFR VFR VFR VFR VFR
WX BR -- -- -- -- -- -- -- -- -- -- --
WDir VRB 270 270 270 270 270 270 270 270 230 230 230
WSpd 0 3 3 3 3 3 3 3 3 6 6 6
WGst -- -- -- -- -- -- -- -- -- -- -- --
Raw TAF
KATL 182152Z 1822/1924 00000KT P6SM SCT250
  FM190800 00000KT 6SM BR SCT250
  FM191300 27003KT P6SM SCT250
  FM192100 23006KT P6SM SCT050 SCT120 BKN250


METAR Board
Radar Display
Forecast Discussion
For situational awareness. Not to be used for flight planning purposes.